createdAt,value
2023-05-28T00:01:25.779Z,100502.13
2023-05-28T00:06:27.531Z,100503.63
2023-05-28T00:11:29.214Z,100491.97
2023-05-28T00:16:31.004Z,100493.38
2023-05-28T00:21:34.405Z,100483.66
2023-05-28T00:26:38.122Z,100476.44
2023-05-28T00:31:39.903Z,100477.16
2023-05-28T00:36:41.643Z,100464.38
2023-05-28T00:41:43.653Z,100462.66
2023-05-28T00:46:46.748Z,100468.25
2023-05-28T00:51:48.503Z,100463.69
2023-05-28T00:56:52.196Z,100460.16
2023-05-28T01:01:54.724Z,100469.53
2023-05-28T01:06:58.123Z,100459.38
2023-05-28T01:12:00.634Z,100448.56
2023-05-28T01:17:02.378Z,100452.75
2023-05-28T01:22:06.001Z,100452.97
2023-05-28T01:27:08.291Z,100451.66
2023-05-28T01:32:09.992Z,100453.69
2023-05-28T01:37:17.233Z,100448.00
2023-05-28T01:42:19.481Z,100450.72
2023-05-28T01:47:22.137Z,100451.88
2023-05-28T01:52:23.941Z,100446.50
2023-05-28T01:57:25.812Z,100441.06
2023-05-28T02:02:28.015Z,100439.63
2023-05-28T02:07:29.778Z,100437.88
2023-05-28T02:12:31.525Z,100437.38
2023-05-28T02:17:33.403Z,100431.78
2023-05-28T02:22:35.157Z,100435.16
2023-05-28T02:27:37.015Z,100436.38
2023-05-28T02:32:38.810Z,100425.91
2023-05-28T02:37:40.546Z,100409.91
2023-05-28T02:42:45.634Z,100422.25
2023-05-28T02:47:48.976Z,100419.84
2023-05-28T02:52:52.987Z,100423.38
2023-05-28T02:57:54.708Z,100415.28
2023-05-28T03:02:57.686Z,100425.13
2023-05-28T03:07:59.969Z,100415.59
2023-05-28T03:13:03.006Z,100417.31
2023-05-28T03:18:06.875Z,100412.38
2023-05-28T03:23:12.722Z,100424.78
2023-05-28T03:28:33.453Z,100429.19
2023-05-28T03:33:51.632Z,100427.41
2023-05-28T03:38:53.469Z,100418.59
2023-05-28T03:43:58.096Z,100427.31
2023-05-28T03:48:59.964Z,100431.47
2023-05-28T03:54:02.921Z,100430.50
2023-05-28T03:59:04.812Z,100417.31
2023-05-28T04:04:06.852Z,100424.84
2023-05-28T04:09:09.701Z,100417.09
2023-05-28T04:14:11.666Z,100417.66
2023-05-28T04:19:13.415Z,100427.16
2023-05-28T04:24:15.279Z,100425.63
2023-05-28T04:29:17.003Z,100414.13
2023-05-28T04:34:18.826Z,100420.16
2023-05-28T04:39:22.745Z,100420.19
2023-05-28T04:44:27.080Z,100416.84
2023-05-28T04:49:30.686Z,100414.53
2023-05-28T04:54:32.743Z,100417.31
2023-05-28T04:59:36.088Z,100411.69
2023-05-28T05:04:37.966Z,100419.16
2023-05-28T05:09:40.477Z,100406.84
2023-05-28T05:14:42.514Z,100408.75
2023-05-28T05:19:44.663Z,100412.16
2023-05-28T05:24:49.312Z,100414.19
2023-05-28T05:29:51.611Z,100399.56
2023-05-28T05:34:53.724Z,100404.59
2023-05-28T05:40:01.428Z,100409.44
2023-05-28T05:45:22.822Z,100410.75
2023-05-28T05:50:27.090Z,100404.28
2023-05-28T05:55:29.762Z,100405.91
2023-05-28T06:00:31.904Z,100405.75
2023-05-28T06:05:37.024Z,100411.72
2023-05-28T06:10:59.014Z,100413.97
2023-05-28T06:16:01.118Z,100414.06
2023-05-28T06:21:04.590Z,100398.59
2023-05-28T06:26:08.910Z,100393.25
2023-05-28T06:31:11.299Z,100400.44
2023-05-28T06:36:13.706Z,100389.97
2023-05-28T06:41:17.164Z,100390.66
2023-05-28T06:46:23.756Z,100400.09
2023-05-28T06:51:26.096Z,100399.78
2023-05-28T06:56:28.794Z,100396.91
2023-05-28T07:01:50.178Z,100391.94
2023-05-28T07:07:16.538Z,100386.44
2023-05-28T07:12:19.614Z,100392.22
2023-05-28T07:17:28.589Z,100392.69
2023-05-28T07:22:30.757Z,100381.91
2023-05-28T07:27:32.802Z,100382.50
2023-05-28T07:32:35.024Z,100386.22
2023-05-28T07:37:39.849Z,100383.78
2023-05-28T07:42:42.752Z,100384.88
2023-05-28T07:47:47.097Z,100387.88
2023-05-28T07:53:09.054Z,100382.66
2023-05-28T07:58:15.504Z,100382.41
2023-05-28T08:03:20.881Z,100379.72
2023-05-28T08:08:25.104Z,100387.09
2023-05-28T08:13:27.228Z,100379.63
2023-05-28T08:18:31.079Z,100375.63
2023-05-28T08:23:35.717Z,100376.25
2023-05-28T08:28:40.236Z,100370.91
2023-05-28T08:33:42.500Z,100361.16
2023-05-28T08:38:44.831Z,100356.63
2023-05-28T08:43:48.927Z,100361.91
2023-05-28T08:48:52.308Z,100355.53
2023-05-28T08:53:55.653Z,100354.63
2023-05-28T08:59:06.242Z,100340.38
2023-05-28T09:04:10.114Z,100347.69
2023-05-28T09:09:16.090Z,100350.34
2023-05-28T09:14:24.799Z,100340.75
2023-05-28T09:19:29.617Z,100328.69
2023-05-28T09:24:33.474Z,100324.13
2023-05-28T09:35:31.691Z,100326.41
2023-05-28T09:40:40.549Z,100336.69
2023-05-28T09:45:44.600Z,100325.91
2023-05-28T09:50:53.350Z,100318.84
2023-05-28T09:56:04.363Z,100326.47
2023-05-28T10:01:16.301Z,100327.47
2023-05-28T10:06:28.805Z,100316.66
2023-05-28T10:11:41.865Z,100322.56
2023-05-28T10:16:51.523Z,100315.16
2023-05-28T10:21:56.714Z,100317.91
2023-05-28T10:26:58.555Z,100306.75
2023-05-28T10:32:01.902Z,100297.13
2023-05-28T10:37:08.138Z,100295.59
2023-05-28T10:42:14.415Z,100295.69
2023-05-28T10:47:18.293Z,100303.28
2023-05-28T10:52:23.341Z,100299.66
2023-05-28T10:57:25.115Z,100300.41
2023-05-28T11:02:29.120Z,100291.41
2023-05-28T11:07:31.697Z,100284.63
2023-05-28T11:12:36.986Z,100285.06
2023-05-28T11:17:43.980Z,100283.56
2023-05-28T11:22:46.045Z,100276.53
2023-05-28T11:27:48.129Z,100286.16
2023-05-28T11:32:50.776Z,100281.31
2023-05-28T11:37:54.227Z,100283.09
2023-05-28T11:42:59.764Z,100279.81
2023-05-28T11:48:01.689Z,100277.13
2023-05-28T11:53:04.617Z,100266.94
2023-05-28T11:58:06.938Z,100270.22
2023-05-28T12:03:12.070Z,100266.84
2023-05-28T12:08:13.947Z,100262.66
2023-05-28T12:13:16.405Z,100254.59
2023-05-28T12:18:21.619Z,100265.00
2023-05-28T12:23:23.349Z,100258.00
2023-05-28T12:28:25.874Z,100250.72
2023-05-28T12:33:27.910Z,100241.66
2023-05-28T12:38:29.674Z,100242.59
2023-05-28T12:43:31.498Z,100237.78
2023-05-28T12:48:33.262Z,100237.19
2023-05-28T12:53:35.060Z,100241.66
2023-05-28T12:58:36.775Z,100238.59
2023-05-28T13:03:38.958Z,100234.66
2023-05-28T13:08:40.727Z,100231.63
2023-05-28T13:13:42.475Z,100212.69
2023-05-28T13:18:46.016Z,100221.13
2023-05-28T13:23:47.839Z,100208.53
2023-05-28T13:28:49.648Z,100214.16
2023-05-28T13:33:51.527Z,100209.13
2023-05-28T13:38:55.158Z,100210.59
2023-05-28T13:43:57.199Z,100208.47
2023-05-28T13:48:58.925Z,100194.66
2023-05-28T13:54:00.682Z,100184.66
2023-05-28T13:59:02.594Z,100182.16
2023-05-28T14:04:04.725Z,100183.28
2023-05-28T14:09:06.752Z,100182.72
2023-05-28T14:14:08.491Z,100187.34
2023-05-28T14:19:10.458Z,100185.19
2023-05-28T14:24:12.240Z,100177.72
2023-05-28T14:29:14.209Z,100168.19
2023-05-28T14:34:15.994Z,100165.91
2023-05-28T14:39:17.733Z,100163.31
2023-05-28T14:44:19.462Z,100151.72
2023-05-28T14:49:21.321Z,100147.22
2023-05-28T14:54:24.014Z,100152.59
2023-05-28T14:59:26.787Z,100153.19
2023-05-28T15:04:28.491Z,100140.41
2023-05-28T15:09:30.230Z,100148.75
2023-05-28T15:14:32.117Z,100147.56
2023-05-28T15:19:35.597Z,100142.78
2023-05-28T15:24:38.328Z,100150.09
2023-05-28T15:29:45.321Z,100144.94
2023-05-28T15:34:47.164Z,100136.88
2023-05-28T15:39:49.227Z,100130.69
2023-05-28T15:44:51.198Z,100130.44
2023-05-28T15:49:53.007Z,100125.13
2023-05-28T15:54:54.921Z,100125.88
2023-05-28T15:59:56.907Z,100128.38
2023-05-28T16:04:58.926Z,100114.50
2023-05-28T16:10:00.874Z,100126.91
2023-05-28T16:15:07.204Z,100121.84
2023-05-28T16:20:13.265Z,100115.22
2023-05-28T16:25:15.578Z,100115.69
2023-05-28T16:30:18.448Z,100111.19
2023-05-28T16:35:20.762Z,100110.91
2023-05-28T16:40:22.925Z,100112.41
2023-05-28T16:45:24.970Z,100110.97
2023-05-28T16:50:27.008Z,100113.88
2023-05-28T16:55:29.014Z,100103.72
2023-05-28T17:00:32.101Z,100107.63
2023-05-28T17:05:34.225Z,100101.34
2023-05-28T17:10:36.067Z,100105.50
2023-05-28T17:15:38.019Z,100094.19
2023-05-28T17:20:40.072Z,100088.59
2023-05-28T17:25:42.083Z,100093.06
2023-05-28T17:30:43.938Z,100093.47
2023-05-28T17:35:45.734Z,100094.31
2023-05-28T17:40:49.050Z,100091.75
2023-05-28T17:45:54.952Z,100098.16
2023-05-28T17:50:57.391Z,100105.03
2023-05-28T17:55:59.328Z,100097.56
2023-05-28T18:01:01.876Z,100098.63
2023-05-28T18:06:04.552Z,100109.38
2023-05-28T18:11:06.477Z,100111.25
2023-05-28T18:16:08.554Z,100104.16
2023-05-28T18:21:11.932Z,100105.69
2023-05-28T18:26:14.127Z,100107.75
2023-05-28T18:31:16.164Z,100102.13
2023-05-28T18:36:18.000Z,100108.72
2023-05-28T18:41:19.887Z,100116.44
2023-05-28T18:46:21.857Z,100120.19
2023-05-28T18:51:24.311Z,100129.75
2023-05-28T18:56:27.642Z,100130.81
2023-05-28T19:01:32.970Z,100132.59
2023-05-28T19:06:37.792Z,100135.25
2023-05-28T19:11:39.743Z,100146.66
2023-05-28T19:16:41.645Z,100145.13
2023-05-28T19:21:43.653Z,100157.59
2023-05-28T19:26:45.659Z,100151.50
2023-05-28T19:31:47.446Z,100164.56
2023-05-28T19:36:50.518Z,100173.00
2023-05-28T19:41:52.474Z,100173.13
2023-05-28T19:46:55.508Z,100177.19
2023-05-28T19:51:57.830Z,100178.22
2023-05-28T19:56:59.886Z,100187.47
2023-05-28T20:02:01.811Z,100186.88
2023-05-28T20:07:03.659Z,100197.13
2023-05-28T20:12:05.703Z,100203.63
2023-05-28T20:17:10.076Z,100212.22
2023-05-28T20:22:12.142Z,100212.13
2023-05-28T20:27:14.050Z,100210.16
2023-05-28T20:32:15.778Z,100213.47
2023-05-28T20:37:17.902Z,100221.56
2023-05-28T20:42:20.107Z,100215.41
2023-05-28T20:47:22.153Z,100211.31
2023-05-28T20:52:24.347Z,100217.50
2023-05-28T20:57:49.444Z,100217.03
2023-05-28T21:02:56.824Z,100216.09
2023-05-28T21:07:58.941Z,100219.19
2023-05-28T21:13:00.945Z,100227.50
2023-05-28T21:18:02.692Z,100230.88
2023-05-28T21:23:04.473Z,100242.47
2023-05-28T21:28:07.525Z,100233.66
2023-05-28T21:33:09.346Z,100230.44
2023-05-28T21:38:11.156Z,100232.81
2023-05-28T21:43:13.068Z,100232.38
2023-05-28T21:48:15.249Z,100232.50
2023-05-28T21:53:17.233Z,100227.91
2023-05-28T21:58:19.207Z,100230.91
2023-05-28T22:03:21.071Z,100237.81
2023-05-28T22:08:22.874Z,100228.81
2023-05-28T22:13:26.137Z,100243.38
2023-05-28T22:18:27.806Z,100233.59
2023-05-28T22:23:29.738Z,100230.44
2023-05-28T22:28:31.493Z,100234.31
2023-05-28T22:33:33.282Z,100227.50
2023-05-28T22:38:36.354Z,100236.13
2023-05-28T22:43:38.105Z,100238.44
2023-05-28T22:48:40.629Z,100244.97
2023-05-28T22:53:42.461Z,100234.88
2023-05-28T22:58:44.228Z,100239.69
2023-05-28T23:03:46.536Z,100247.63
2023-05-28T23:08:48.354Z,100244.13
2023-05-28T23:13:50.105Z,100253.47
2023-05-28T23:18:53.080Z,100260.91
2023-05-28T23:23:54.982Z,100259.69
2023-05-28T23:28:56.751Z,100254.94
2023-05-28T23:33:58.591Z,100263.56
2023-05-28T23:39:00.489Z,100258.59
2023-05-28T23:44:02.214Z,100255.50
2023-05-28T23:49:04.451Z,100251.06
2023-05-28T23:54:06.319Z,100251.59
2023-05-28T23:59:08.634Z,100247.09
